Time;durP1;ratioP1;P1;durP2;ratioP2;P2;SDS_P1;SDS_P2;PMS_P1;PMS_P2;Temp;Humidity;BMP_temperature;BMP_pressure;BME280_temperature;BME280_humidity;BME280_pressure;Samples;Min_cycle;Max_cycle;Signal;HPM_P1;HPM_P2
2023/06/09 00:00:49;;;;;;;74.00;70.20;;;;;;;;;;5033850;28;20033;-60
2023/06/09 00:03:21;;;;;;;57.00;53.95;;;;;;;;;;5036087;28;20041;-60
2023/06/09 00:05:46;;;;;;;54.70;51.78;;;;;;;;;;5033895;28;20127;-59
2023/06/09 00:08:12;;;;;;;55.72;52.38;;;;;;;;;;5034721;28;20064;-59
2023/06/09 00:10:37;;;;;;;58.00;55.00;;;;;;;;;;5037273;28;20060;-59
2023/06/09 00:13:03;;;;;;;50.83;48.22;;;;;;;;;;5034755;28;20207;-58
2023/06/09 00:15:28;;;;;;;49.83;47.17;;;;;;;;;;5033415;28;20033;-60
2023/06/09 00:17:54;;;;;;;45.28;42.90;;;;;;;;;;5038749;28;20037;-60
2023/06/09 00:20:20;;;;;;;43.22;40.92;;;;;;;;;;5033618;28;20087;-59
2023/06/09 00:22:48;;;;;;;43.13;40.78;;;;;;;;;;5032147;28;20037;-59
2023/06/09 00:25:15;;;;;;;44.63;42.28;;;;;;;;;;5035376;28;20033;-58
2023/06/09 00:27:45;;;;;;;61.40;58.17;;;;;;;;;;5034887;28;20041;-58
2023/06/09 00:30:11;;;;;;;54.47;51.60;;;;;;;;;;5034158;28;20048;-59
2023/06/09 00:32:36;;;;;;;61.10;57.95;;;;;;;;;;5032805;28;20511;-59
2023/06/09 00:35:03;;;;;;;68.22;64.78;;;;;;;;;;5041758;28;20086;-59
2023/06/09 00:37:28;;;;;;;64.50;61.15;;;;;;;;;;5037493;28;20048;-59
2023/06/09 00:39:54;;;;;;;68.93;65.47;;;;;;;;;;5038282;28;20036;-59
2023/06/09 00:42:19;;;;;;;74.60;70.75;;;;;;;;;;5039018;28;20083;-59
2023/06/09 00:44:44;;;;;;;81.70;77.63;;;;;;;;;;5038503;28;21400;-59
2023/06/09 00:47:10;;;;;;;81.85;77.70;;;;;;;;;;5036678;28;20037;-59
2023/06/09 00:49:36;;;;;;;82.82;78.60;;;;;;;;;;5038475;28;20037;-59
2023/06/09 00:52:02;;;;;;;87.47;82.82;;;;;;;;;;5036790;28;20247;-59
2023/06/09 00:54:28;;;;;;;90.22;85.68;;;;;;;;;;5039339;28;20045;-59
2023/06/09 00:56:55;;;;;;;85.13;80.85;;;;;;;;;;5039195;28;20047;-58
2023/06/09 00:59:21;;;;;;;87.68;83.03;;;;;;;;;;5038700;28;20044;-59
2023/06/09 01:01:47;;;;;;;95.28;90.43;;;;;;;;;;5035168;28;20390;-58
2023/06/09 01:07:32;;;;;;;90.22;85.72;;;;;;;;;;5038734;28;20029;-58
2023/06/09 01:10:02;;;;;;;79.75;75.72;;;;;;;;;;5035838;28;20039;-58
2023/06/09 01:13:16;;;;;;;69.38;65.82;;;;;;;;;;5036181;28;20033;-59
2023/06/09 01:15:46;;;;;;;59.58;56.50;;;;;;;;;;5033644;28;20120;-59
2023/06/09 01:18:14;;;;;;;;;;;;;;;;;;5045147;28;20047;-59
2023/06/09 01:21:14;;;;;;;55.35;52.50;;;;;;;;;;5036351;28;19963;-58
2023/06/09 01:24:30;;;;;;;57.95;54.97;;;;;;;;;;5036090;28;20051;-58
2023/06/09 01:26:59;;;;;;;64.70;61.35;;;;;;;;;;5037910;28;20098;-58
2023/06/09 01:29:26;;;;;;;70.80;67.22;;;;;;;;;;5036425;28;20030;-58
2023/06/09 01:31:54;;;;;;;69.85;66.30;;;;;;;;;;5033106;28;20479;-58
2023/06/09 01:34:20;;;;;;;70.82;67.22;;;;;;;;;;5039578;28;20143;-58
2023/06/09 01:36:47;;;;;;;58.85;55.88;;;;;;;;;;5040225;28;20054;-59
2023/06/09 01:39:12;;;;;;;63.03;59.78;;;;;;;;;;5037730;28;20048;-58
2023/06/09 01:41:38;;;;;;;66.55;63.15;;;;;;;;;;5036408;28;20040;-58
2023/06/09 01:44:03;;;;;;;66.57;63.15;;;;;;;;;;5039656;28;20040;-58
2023/06/09 01:46:29;;;;;;;67.57;64.13;;;;;;;;;;5036198;28;20041;-59
2023/06/09 01:49:06;;;;;;;62.35;58.97;;;;;;;;;;5034201;28;20041;-58
2023/06/09 01:51:50;;;;;;;66.10;62.70;;;;;;;;;;5035421;28;20036;-59
2023/06/09 01:54:23;;;;;;;64.88;61.53;;;;;;;;;;5038180;28;20119;-58
2023/06/09 01:56:58;;;;;;;63.85;60.53;;;;;;;;;;5036588;28;20036;-58
2023/06/09 01:59:29;;;;;;;62.10;58.95;;;;;;;;;;5034686;28;20041;-58
2023/06/09 02:01:57;;;;;;;63.28;59.97;;;;;;;;;;5038975;28;20025;-58
2023/06/09 02:04:25;;;;;;;63.60;60.40;;;;;;;;;;5036811;28;20443;-59
2023/06/09 02:06:52;;;;;;;63.13;59.90;;;;;;;;;;5036249;28;20051;-58
2023/06/09 02:09:18;;;;;;;63.10;59.83;;;;;;;;;;5032576;28;20360;-58
2023/06/09 02:11:50;;;;;;;65.15;61.72;;;;;;;;;;5036476;28;20041;-59
2023/06/09 02:14:15;;;;;;;55.22;52.38;;;;;;;;;;5036584;28;20037;-59
2023/06/09 02:16:41;;;;;;;51.55;48.90;;;;;;;;;;5036969;28;20041;-59
2023/06/09 02:19:06;;;;;;;52.42;49.72;;;;;;;;;;5035615;28;20464;-59
2023/06/09 02:21:32;;;;;;;51.28;48.65;;;;;;;;;;5036488;28;20091;-59
2023/06/09 02:23:57;;;;;;;46.03;43.60;;;;;;;;;;5037523;28;20033;-59
2023/06/09 02:26:22;;;;;;;51.28;48.53;;;;;;;;;;5035932;28;20128;-59
2023/06/09 02:28:48;;;;;;;50.38;47.63;;;;;;;;;;5036101;28;20067;-59
2023/06/09 02:31:13;;;;;;;50.65;48.05;;;;;;;;;;5037557;28;20029;-59
2023/06/09 02:33:38;;;;;;;50.20;47.60;;;;;;;;;;5035066;28;20455;-59
2023/06/09 02:36:04;;;;;;;56.72;53.85;;;;;;;;;;5035640;28;20110;-59
2023/06/09 02:38:31;;;;;;;56.78;53.85;;;;;;;;;;5035176;28;20531;-59
2023/06/09 02:40:56;;;;;;;53.55;50.78;;;;;;;;;;5036197;28;20094;-59
2023/06/09 02:43:21;;;;;;;55.38;52.25;;;;;;;;;;5036978;28;20040;-59
2023/06/09 02:45:47;;;;;;;54.95;52.10;;;;;;;;;;5036183;28;20073;-59
2023/06/09 02:48:14;;;;;;;52.85;50.15;;;;;;;;;;5035490;28;20048;-59
2023/06/09 02:50:40;;;;;;;57.72;54.72;;;;;;;;;;5036308;28;20508;-59
2023/06/09 02:53:06;;;;;;;57.08;54.03;;;;;;;;;;5036507;28;20061;-59
2023/06/09 02:55:33;;;;;;;50.15;47.45;;;;;;;;;;5034449;28;20036;-59
2023/06/09 02:57:58;;;;;;;49.75;47.17;;;;;;;;;;5037001;28;20040;-59
2023/06/09 03:00:24;;;;;;;46.63;44.00;;;;;;;;;;5035677;28;20040;-59
2023/06/09 03:02:51;;;;;;;39.10;36.95;;;;;;;;;;5037596;28;20117;-59
2023/06/09 03:05:20;;;;;;;44.97;42.65;;;;;;;;;;5035945;28;20047;-60
2023/06/09 03:07:49;;;;;;;39.30;37.25;;;;;;;;;;5035032;28;20041;-59
2023/06/09 03:10:15;;;;;;;40.30;38.20;;;;;;;;;;5035385;28;20044;-58
2023/06/09 03:12:40;;;;;;;42.92;40.72;;;;;;;;;;5038379;28;20293;-59
2023/06/09 03:15:06;;;;;;;43.92;41.65;;;;;;;;;;5036379;28;20041;-59
2023/06/09 03:17:31;;;;;;;47.30;44.80;;;;;;;;;;5037011;28;20055;-59
2023/06/09 03:19:56;;;;;;;43.80;41.53;;;;;;;;;;5034537;28;20044;-59
2023/06/09 03:22:22;;;;;;;43.15;40.85;;;;;;;;;;5035973;28;20372;-59
2023/06/09 03:24:48;;;;;;;43.17;40.92;;;;;;;;;;5035149;28;20113;-59
2023/06/09 03:27:14;;;;;;;46.58;44.08;;;;;;;;;;5035861;28;20040;-58
2023/06/09 03:29:40;;;;;;;38.30;36.33;;;;;;;;;;5033068;28;20036;-59
2023/06/09 03:32:06;;;;;;;42.70;40.45;;;;;;;;;;5033535;28;20033;-59
2023/06/09 03:34:31;;;;;;;44.10;41.70;;;;;;;;;;5036954;28;20052;-59
2023/06/09 03:36:57;;;;;;;44.90;42.50;;;;;;;;;;5036990;28;20044;-59
2023/06/09 03:39:22;;;;;;;44.35;41.97;;;;;;;;;;5035261;28;20110;-59
2023/06/09 03:41:48;;;;;;;43.05;40.65;;;;;;;;;;5034618;28;20467;-58
2023/06/09 03:44:13;;;;;;;42.65;40.40;;;;;;;;;;5035684;28;20359;-61
2023/06/09 03:46:39;;;;;;;47.15;44.70;;;;;;;;;;5035008;28;20045;-58
2023/06/09 03:49:04;;;;;;;44.38;41.80;;;;;;;;;;5033969;28;20140;-59
2023/06/09 03:51:30;;;;;;;44.42;42.10;;;;;;;;;;5032569;28;20402;-59
2023/06/09 03:53:55;;;;;;;43.53;41.20;;;;;;;;;;5035755;28;20035;-59
2023/06/09 03:56:20;;;;;;;42.13;39.90;;;;;;;;;;5035766;28;20084;-58
2023/06/09 03:58:46;;;;;;;48.75;46.22;;;;;;;;;;5032227;28;20122;-59
2023/06/09 04:01:12;;;;;;;46.47;44.10;;;;;;;;;;5034005;28;20032;-59
2023/06/09 04:03:38;;;;;;;44.03;41.72;;;;;;;;;;5033669;28;20094;-60
2023/06/09 04:06:03;;;;;;;43.25;40.92;;;;;;;;;;5032267;28;20684;-60
2023/06/09 04:08:29;;;;;;;45.92;42.67;;;;;;;;;;5032187;28;20128;-60
2023/06/09 04:10:55;;;;;;;40.13;37.92;;;;;;;;;;5036111;28;20069;-60
2023/06/09 04:13:20;;;;;;;39.97;37.85;;;;;;;;;;5036969;28;20033;-60
2023/06/09 04:15:46;;;;;;;40.25;38.15;;;;;;;;;;5032417;28;20121;-59
2023/06/09 04:18:11;;;;;;;39.88;37.78;;;;;;;;;;5033425;28;20033;-59
2023/06/09 04:20:36;;;;;;;37.25;35.25;;;;;;;;;;5032736;28;20480;-60
2023/06/09 04:23:02;;;;;;;38.97;36.83;;;;;;;;;;5031274;28;20033;-60
2023/06/09 04:25:27;;;;;;;42.85;40.50;;;;;;;;;;5032828;28;20156;-60
2023/06/09 04:27:53;;;;;;;41.85;39.58;;;;;;;;;;5034754;28;20333;-60
2023/06/09 04:30:25;;;;;;;37.50;35.45;;;;;;;;;;5035727;28;20116;-60
2023/06/09 04:32:55;;;;;;;41.55;39.25;;;;;;;;;;5034717;28;20030;-60
2023/06/09 04:35:21;;;;;;;38.20;36.22;;;;;;;;;;5034482;28;20413;-59
2023/06/09 04:37:48;;;;;;;38.65;36.60;;;;;;;;;;5034174;28;20029;-60
2023/06/09 04:40:21;;;;;;;40.25;38.03;;;;;;;;;;5035141;28;20030;-60
2023/06/09 04:42:51;;;;;;;50.45;47.72;;;;;;;;;;5036248;28;20083;-60
2023/06/09 04:45:18;;;;;;;51.05;48.40;;;;;;;;;;5034780;28;20103;-59
2023/06/09 04:47:48;;;;;;;56.05;53.17;;;;;;;;;;5031982;28;20440;-60
2023/06/09 04:50:16;;;;;;;59.92;56.88;;;;;;;;;;5037788;28;20555;-59
2023/06/09 04:52:44;;;;;;;56.13;53.17;;;;;;;;;;5035290;28;20030;-60
2023/06/09 04:55:09;;;;;;;66.40;63.03;;;;;;;;;;5033944;28;20029;-59
2023/06/09 04:57:36;;;;;;;67.95;64.53;;;;;;;;;;5033722;28;20033;-59
2023/06/09 05:00:03;;;;;;;64.95;61.55;;;;;;;;;;5033907;28;20456;-60
2023/06/09 05:02:29;;;;;;;70.75;67.15;;;;;;;;;;5032833;28;20033;-60
2023/06/09 05:04:54;;;;;;;71.75;68.15;;;;;;;;;;5031583;28;20037;-60
2023/06/09 05:07:19;;;;;;;78.53;74.43;;;;;;;;;;5034398;28;20206;-60
2023/06/09 05:09:45;;;;;;;78.18;74.13;;;;;;;;;;5035029;28;20033;-60
2023/06/09 05:12:10;;;;;;;82.18;78.03;;;;;;;;;;5034214;28;20033;-60
2023/06/09 05:14:35;;;;;;;79.65;75.68;;;;;;;;;;5033351;28;20116;-60
2023/06/09 05:17:02;;;;;;;89.47;85.03;;;;;;;;;;5031243;28;20145;-59
2023/06/09 05:19:27;;;;;;;94.78;89.63;;;;;;;;;;5034701;28;20382;-60
2023/06/09 05:21:55;;;;;;;101.72;96.50;;;;;;;;;;5040259;28;20037;-60
2023/06/09 05:24:20;;;;;;;99.95;94.97;;;;;;;;;;5037395;28;20033;-59
2023/06/09 05:26:46;;;;;;;95.95;91.10;;;;;;;;;;5037211;28;20404;-60
2023/06/09 05:29:11;;;;;;;38.70;36.60;;;;;;;;;;5036760;28;20147;-60
2023/06/09 05:31:37;;;;;;;23.33;22.05;;;;;;;;;;5038497;28;20036;-60
2023/06/09 05:34:02;;;;;;;29.80;28.23;;;;;;;;;;5038898;28;20515;-60
2023/06/09 05:36:27;;;;;;;27.02;25.52;;;;;;;;;;5035296;28;20040;-60
2023/06/09 05:38:53;;;;;;;30.65;28.98;;;;;;;;;;5033768;28;20431;-60
2023/06/09 05:41:18;;;;;;;24.35;22.85;;;;;;;;;;5036723;28;20033;-61
2023/06/09 05:43:44;;;;;;;17.75;16.65;;;;;;;;;;5037995;28;20090;-61
2023/06/09 05:46:09;;;;;;;17.65;16.65;;;;;;;;;;5036733;28;20473;-61
2023/06/09 05:48:34;;;;;;;16.98;15.77;;;;;;;;;;5035413;28;20036;-61
2023/06/09 05:51:00;;;;;;;19.02;17.95;;;;;;;;;;5035394;28;20128;-60
2023/06/09 05:53:25;;;;;;;15.52;14.63;;;;;;;;;;5039014;28;20048;-60
2023/06/09 05:55:52;;;;;;;16.15;15.25;;;;;;;;;;5045811;28;20098;-60
2023/06/09 05:58:18;;;;;;;16.20;15.30;;;;;;;;;;5037743;28;20988;-60
2023/06/09 06:00:44;;;;;;;18.42;17.23;;;;;;;;;;5034295;28;20375;-60
2023/06/09 06:03:10;;;;;;;19.27;17.83;;;;;;;;;;5036055;28;20033;-60
2023/06/09 06:05:36;;;;;;;19.33;18.13;;;;;;;;;;5044098;28;20029;-60
2023/06/09 06:08:02;;;;;;;17.33;16.30;;;;;;;;;;5036415;28;20427;-60
2023/06/09 06:10:27;;;;;;;20.20;19.00;;;;;;;;;;5038143;28;20052;-61
2023/06/09 06:12:53;;;;;;;23.33;22.02;;;;;;;;;;5037652;28;20490;-61
2023/06/09 06:15:20;;;;;;;21.58;20.38;;;;;;;;;;5033434;28;20088;-60
2023/06/09 06:17:46;;;;;;;24.88;23.48;;;;;;;;;;5034549;28;20546;-60
2023/06/09 06:20:14;;;;;;;22.75;21.48;;;;;;;;;;5037085;28;20128;-60
2023/06/09 06:22:41;;;;;;;20.13;18.80;;;;;;;;;;5040511;28;20048;-60
2023/06/09 06:25:07;;;;;;;16.60;15.68;;;;;;;;;;5033395;28;20117;-61
2023/06/09 06:27:32;;;;;;;20.73;19.25;;;;;;;;;;5037151;28;20116;-61
2023/06/09 06:29:58;;;;;;;16.02;15.07;;;;;;;;;;5035257;28;20136;-61
2023/06/09 06:32:25;;;;;;;17.70;16.60;;;;;;;;;;5034632;28;20116;-61
2023/06/09 06:34:50;;;;;;;15.68;14.68;;;;;;;;;;5037199;28;20033;-61
2023/06/09 06:37:15;;;;;;;20.35;19.23;;;;;;;;;;5035643;28;20118;-61
2023/06/09 06:39:41;;;;;;;15.63;14.73;;;;;;;;;;5031950;28;20033;-61
2023/06/09 06:42:06;;;;;;;24.60;23.20;;;;;;;;;;5035453;28;20029;-61
2023/06/09 06:44:32;;;;;;;21.35;20.17;;;;;;;;;;5034142;28;20033;-61
2023/06/09 06:46:57;;;;;;;21.67;20.48;;;;;;;;;;5036727;28;20037;-61
2023/06/09 06:49:22;;;;;;;22.98;21.75;;;;;;;;;;5034734;28;20044;-66
2023/06/09 06:51:48;;;;;;;26.08;24.65;;;;;;;;;;5036324;28;20091;-61
2023/06/09 06:54:15;;;;;;;20.95;19.77;;;;;;;;;;5035776;28;20056;-61
2023/06/09 06:56:40;;;;;;;17.10;16.15;;;;;;;;;;5037212;28;20263;-61
2023/06/09 06:59:06;;;;;;;19.13;18.02;;;;;;;;;;5037604;28;20037;-61
2023/06/09 07:01:32;;;;;;;21.02;19.83;;;;;;;;;;5035134;28;20112;-61
2023/06/09 07:03:57;;;;;;;21.45;20.25;;;;;;;;;;5037161;28;20441;-69
2023/06/09 07:06:23;;;;;;;19.52;18.42;;;;;;;;;;5036078;28;20108;-67
2023/06/09 07:08:49;;;;;;;22.92;21.67;;;;;;;;;;5037017;28;20124;-67
2023/06/09 07:11:15;;;;;;;23.83;22.52;;;;;;;;;;5034974;28;20037;-66
2023/06/09 07:13:40;;;;;;;24.83;23.42;;;;;;;;;;5034526;28;20033;-65
2023/06/09 07:16:06;;;;;;;24.95;23.58;;;;;;;;;;5035252;28;20032;-60
2023/06/09 07:18:31;;;;;;;24.80;23.45;;;;;;;;;;5034625;28;20338;-60
2023/06/09 07:20:56;;;;;;;21.05;19.85;;;;;;;;;;5034619;28;20037;-60
2023/06/09 07:23:21;;;;;;;26.15;24.60;;;;;;;;;;5036513;28;20507;-65
2023/06/09 07:25:47;;;;;;;23.80;22.35;;;;;;;;;;5035998;28;20034;-67
2023/06/09 07:28:12;;;;;;;16.65;15.75;;;;;;;;;;5032497;28;20506;-66
2023/06/09 07:30:40;;;;;;;25.75;24.35;;;;;;;;;;5033816;28;20107;-66
2023/06/09 07:33:06;;;;;;;16.77;15.77;;;;;;;;;;5034245;28;20394;-65
2023/06/09 07:35:32;;;;;;;19.38;18.27;;;;;;;;;;5034228;28;20487;-60
2023/06/09 07:37:58;;;;;;;17.10;16.05;;;;;;;;;;5033693;28;20127;-61
2023/06/09 07:40:23;;;;;;;18.55;17.52;;;;;;;;;;5036579;28;20437;-61
2023/06/09 07:42:48;;;;;;;24.17;22.83;;;;;;;;;;5033505;28;20033;-60
2023/06/09 07:45:14;;;;;;;17.30;16.25;;;;;;;;;;5035120;28;20372;-66
2023/06/09 07:47:40;;;;;;;31.95;30.30;;;;;;;;;;5032795;28;20479;-61
2023/06/09 07:50:06;;;;;;;23.05;21.75;;;;;;;;;;5033354;28;20064;-60
2023/06/09 07:52:32;;;;;;;48.00;45.50;;;;;;;;;;5034925;28;20052;-65
2023/06/09 07:54:57;;;;;;;68.70;65.25;;;;;;;;;;5037231;28;20045;-67
2023/06/09 07:57:23;;;;;;;95.53;90.75;;;;;;;;;;5037821;28;20045;-59
2023/06/09 07:59:48;;;;;;;95.78;91.00;;;;;;;;;;5034749;28;20098;-60
2023/06/09 08:02:13;;;;;;;95.80;91.00;;;;;;;;;;5035558;28;20041;-66
2023/06/09 08:04:42;;;;;;;84.93;80.55;;;;;;;;;;5034016;28;20421;-60
2023/06/09 08:07:09;;;;;;;111.32;105.85;;;;;;;;;;5034086;28;20041;-60
2023/06/09 08:09:34;;;;;;;113.90;108.25;;;;;;;;;;5033167;28;20028;-66
2023/06/09 08:12:00;;;;;;;101.55;96.50;;;;;;;;;;5032957;28;20048;-65
2023/06/09 08:14:25;;;;;;;106.57;101.35;;;;;;;;;;5034143;28;20450;-65
2023/06/09 08:16:52;;;;;;;80.50;76.53;;;;;;;;;;5034522;28;20029;-60
2023/06/09 08:19:17;;;;;;;75.60;71.82;;;;;;;;;;5034075;28;20363;-65
2023/06/09 08:21:43;;;;;;;80.90;76.90;;;;;;;;;;5037912;28;20036;-65
2023/06/09 08:24:12;;;;;;;76.30;72.50;;;;;;;;;;5036612;28;20107;-59
2023/06/09 08:26:38;;;;;;;69.78;66.20;;;;;;;;;;5033649;28;20060;-59
2023/06/09 08:29:04;;;;;;;66.95;63.60;;;;;;;;;;5035437;28;20104;-59
2023/06/09 08:31:31;;;;;;;94.82;90.13;;;;;;;;;;5032475;28;20132;-58
2023/06/09 08:33:57;;;;;;;101.43;96.35;;;;;;;;;;5034354;28;20041;-65
2023/06/09 08:36:23;;;;;;;125.40;119.10;;;;;;;;;;5035254;28;20040;-66
2023/06/09 08:38:48;;;;;;;132.15;125.57;;;;;;;;;;5032366;28;20063;-58
2023/06/09 08:41:15;;;;;;;109.78;104.32;;;;;;;;;;5035322;28;20037;-58
2023/06/09 08:43:41;;;;;;;145.75;138.52;;;;;;;;;;5035191;28;20029;-59
2023/06/09 08:46:09;;;;;;;168.55;160.25;;;;;;;;;;5037251;28;20044;-58
2023/06/09 08:48:38;;;;;;;182.13;173.30;;;;;;;;;;5034984;28;20040;-64
2023/06/09 08:51:04;;;;;;;181.43;172.43;;;;;;;;;;5035355;28;20638;-65
2023/06/09 08:53:31;;;;;;;179.90;171.10;;;;;;;;;;5034823;28;20200;-58
2023/06/09 08:55:59;;;;;;;183.52;174.55;;;;;;;;;;5038072;28;20045;-59
2023/06/09 08:58:26;;;;;;;187.07;177.90;;;;;;;;;;5036891;28;20029;-58
2023/06/09 09:00:52;;;;;;;186.45;177.35;;;;;;;;;;5037238;28;20047;-66
2023/06/09 09:03:18;;;;;;;128.50;122.07;;;;;;;;;;5040377;28;20192;-66
2023/06/09 09:05:46;;;;;;;212.65;202.30;;;;;;;;;;5040741;28;20035;-65
2023/06/09 09:08:13;;;;;;;170.38;162.00;;;;;;;;;;5036455;28;20035;-60
2023/06/09 09:10:42;;;;;;;229.23;218.02;;;;;;;;;;5038661;28;20032;-59
2023/06/09 09:13:10;;;;;;;209.13;198.95;;;;;;;;;;5037729;28;20496;-59
2023/06/09 09:15:37;;;;;;;284.33;270.40;;;;;;;;;;5036846;28;20064;-67
2023/06/09 09:18:04;;;;;;;138.15;131.23;;;;;;;;;;5043552;28;20106;-65
2023/06/09 09:20:34;;;;;;;163.63;155.48;;;;;;;;;;5036168;28;20030;-63
2023/06/09 09:22:59;;;;;;;94.95;90.18;;;;;;;;;;5033736;28;20032;-62
2023/06/09 09:25:29;;;;;;;133.32;126.75;;;;;;;;;;5038670;28;20159;-64
2023/06/09 09:28:07;;;;;;;58.15;55.25;;;;;;;;;;5036280;28;20029;-59
2023/06/09 09:30:42;;;;;;;78.72;74.80;;;;;;;;;;5035770;28;20110;-59
2023/06/09 09:33:09;;;;;;;142.73;135.68;;;;;;;;;;5036322;28;20051;-59
2023/06/09 09:35:39;;;;;;;174.15;165.57;;;;;;;;;;5036741;28;20049;-59
2023/06/09 09:38:10;;;;;;;118.55;112.72;;;;;;;;;;5035823;28;20025;-59
2023/06/09 09:40:44;;;;;;;94.15;89.40;;;;;;;;;;5036402;28;20059;-65
2023/06/09 09:43:10;;;;;;;80.18;76.20;;;;;;;;;;5038421;28;20025;-66
2023/06/09 09:45:38;;;;;;;62.75;59.58;;;;;;;;;;5045352;28;20112;-65
2023/06/09 09:48:09;;;;;;;63.50;60.30;;;;;;;;;;5036322;28;20034;-66
2023/06/09 09:50:38;;;;;;;63.50;60.30;;;;;;;;;;5038332;28;20051;-65
2023/06/09 09:53:05;;;;;;;70.00;66.45;;;;;;;;;;5035640;28;20390;-66
2023/06/09 09:55:35;;;;;;;74.28;70.53;;;;;;;;;;5036536;28;20099;-59
2023/06/09 09:58:06;;;;;;;74.45;70.72;;;;;;;;;;5036933;28;20053;-65
2023/06/09 10:00:33;;;;;;;73.18;69.50;;;;;;;;;;5036314;28;20044;-65
2023/06/09 10:03:00;;;;;;;86.65;82.20;;;;;;;;;;5034579;28;20467;-58
2023/06/09 10:05:30;;;;;;;103.75;98.60;;;;;;;;;;5035688;28;20061;-64
2023/06/09 10:08:00;;;;;;;110.43;104.95;;;;;;;;;;5035271;28;20057;-64
2023/06/09 10:10:26;;;;;;;119.93;113.97;;;;;;;;;;5039867;28;20028;-64
2023/06/09 10:12:52;;;;;;;119.65;113.75;;;;;;;;;;5034597;28;20029;-58
2023/06/09 10:15:19;;;;;;;118.57;112.72;;;;;;;;;;5036825;28;20466;-57
2023/06/09 10:17:47;;;;;;;119.75;113.82;;;;;;;;;;5037230;28;20090;-56
2023/06/09 10:20:14;;;;;;;120.70;114.65;;;;;;;;;;5034643;28;20123;-65
2023/06/09 10:22:41;;;;;;;120.78;114.82;;;;;;;;;;5034987;28;20033;-63
2023/06/09 10:25:08;;;;;;;125.15;119.05;;;;;;;;;;5036568;28;20025;-63
2023/06/09 10:27:34;;;;;;;131.68;125.13;;;;;;;;;;5034934;28;20120;-63
2023/06/09 10:30:00;;;;;;;124.45;118.30;;;;;;;;;;5034064;28;20033;-57
2023/06/09 10:32:29;;;;;;;89.65;85.15;;;;;;;;;;5035547;28;20036;-57
2023/06/09 10:34:57;;;;;;;84.00;79.85;;;;;;;;;;5035709;28;20025;-66
2023/06/09 10:37:28;;;;;;;104.28;99.03;;;;;;;;;;5037571;28;20025;-60
2023/06/09 10:40:10;;;;;;;90.40;85.78;;;;;;;;;;5034367;28;20025;-56
2023/06/09 10:42:47;;;;;;;84.40;80.18;;;;;;;;;;5035352;28;20033;-58
2023/06/09 10:45:14;;;;;;;120.00;114.07;;;;;;;;;;5035280;28;20040;-58
2023/06/09 10:47:45;;;;;;;76.18;72.38;;;;;;;;;;5039855;28;20405;-65
2023/06/09 10:50:27;;;;;;;72.70;69.07;;;;;;;;;;5033714;28;20036;-64
2023/06/09 10:52:54;;;;;;;91.72;87.20;;;;;;;;;;5036058;28;20616;-64
2023/06/09 10:55:22;;;;;;;73.95;70.25;;;;;;;;;;5038881;28;20032;-58
2023/06/09 10:57:49;;;;;;;78.10;74.20;;;;;;;;;;5038900;28;20082;-57
2023/06/09 11:00:15;;;;;;;82.88;78.78;;;;;;;;;;5033512;28;20045;-58
2023/06/09 11:02:45;;;;;;;83.47;79.30;;;;;;;;;;5035658;28;20097;-58
2023/06/09 11:05:10;;;;;;;57.83;54.72;;;;;;;;;;5032037;28;20036;-58
2023/06/09 11:07:46;;;;;;;41.88;39.72;;;;;;;;;;5035068;28;20671;-59
2023/06/09 11:10:12;;;;;;;75.45;71.70;;;;;;;;;;5032853;28;20402;-59
2023/06/09 11:12:37;;;;;;;64.80;61.53;;;;;;;;;;5034091;28;20107;-59
2023/06/09 11:15:03;;;;;;;60.75;57.65;;;;;;;;;;5034646;28;20037;-58
2023/06/09 11:17:40;;;;;;;35.70;33.85;;;;;;;;;;5035425;28;20044;-58
2023/06/09 11:20:06;;;;;;;18.15;17.05;;;;;;;;;;5031038;28;20029;-58
2023/06/09 11:22:32;;;;;;;14.80;13.90;;;;;;;;;;5035224;28;20562;-58
2023/06/09 11:24:57;;;;;;;19.48;18.38;;;;;;;;;;5033861;28;20041;-58
2023/06/09 11:27:23;;;;;;;13.57;12.77;;;;;;;;;;5035763;28;20529;-58
2023/06/09 11:30:04;;;;;;;15.07;14.18;;;;;;;;;;5033055;28;20052;-57
2023/06/09 11:32:45;;;;;;;16.95;15.85;;;;;;;;;;5035732;28;20368;-62
2023/06/09 11:35:22;;;;;;;14.60;13.70;;;;;;;;;;5035325;28;20053;-62
2023/06/09 11:37:49;;;;;;;17.00;16.02;;;;;;;;;;5035882;28;20522;-54
2023/06/09 11:40:15;;;;;;;17.98;16.98;;;;;;;;;;5032128;28;20076;-50
2023/06/09 11:42:40;;;;;;;14.63;13.73;;;;;;;;;;5034258;28;20057;-52
2023/06/09 11:45:07;;;;;;;17.42;16.42;;;;;;;;;;5035249;28;20037;-57
2023/06/09 11:47:32;;;;;;;16.00;15.10;;;;;;;;;;5037215;28;20052;-49
2023/06/09 11:49:59;;;;;;;16.00;15.00;;;;;;;;;;5036224;28;20040;-62
2023/06/09 11:52:24;;;;;;;14.95;14.07;;;;;;;;;;5035008;28;20028;-62
2023/06/09 11:54:50;;;;;;;16.15;15.25;;;;;;;;;;5035255;28;20060;-63
2023/06/09 11:57:16;;;;;;;17.70;16.27;;;;;;;;;;5041150;28;20025;-63
2023/06/09 11:59:42;;;;;;;17.38;16.33;;;;;;;;;;5032127;28;20059;-62
2023/06/09 12:02:09;;;;;;;15.30;14.40;;;;;;;;;;5032602;28;20080;-62
2023/06/09 12:04:40;;;;;;;15.27;14.38;;;;;;;;;;5034902;28;20063;-54
2023/06/09 12:07:05;;;;;;;17.05;16.05;;;;;;;;;;5036345;28;20031;-55
2023/06/09 12:09:31;;;;;;;15.95;14.95;;;;;;;;;;5035386;28;20033;-48
2023/06/09 12:11:56;;;;;;;15.02;14.13;;;;;;;;;;5033241;28;20032;-53
2023/06/09 12:14:21;;;;;;;15.38;14.40;;;;;;;;;;5032184;28;20359;-53
2023/06/09 12:16:48;;;;;;;14.50;13.70;;;;;;;;;;5036889;28;20095;-62
2023/06/09 12:19:13;;;;;;;16.50;15.48;;;;;;;;;;5033464;28;20099;-52
2023/06/09 12:21:39;;;;;;;15.45;14.55;;;;;;;;;;5035346;28;20024;-53
2023/06/09 12:24:05;;;;;;;15.73;14.73;;;;;;;;;;5033897;28;20021;-63
2023/06/09 12:26:40;;;;;;;14.80;13.90;;;;;;;;;;5034248;28;20037;-63
2023/06/09 12:29:06;;;;;;;16.75;15.75;;;;;;;;;;5032403;28;20096;-54
2023/06/09 12:31:31;;;;;;;15.00;14.10;;;;;;;;;;5033749;28;20049;-63
2023/06/09 12:33:57;;;;;;;17.75;16.75;;;;;;;;;;5031881;28;20044;-62
2023/06/09 12:36:22;;;;;;;15.20;14.30;;;;;;;;;;5031194;28;20029;-61
2023/06/09 12:38:49;;;;;;;15.35;14.45;;;;;;;;;;5034488;28;20033;-62
2023/06/09 12:41:17;;;;;;;16.00;15.05;;;;;;;;;;5032328;28;20030;-52
2023/06/09 12:43:56;;;;;;;15.75;14.85;;;;;;;;;;5034647;28;20112;-52
2023/06/09 12:46:38;;;;;;;16.92;15.88;;;;;;;;;;5029285;28;20035;-51
2023/06/09 12:49:05;;;;;;;14.85;13.98;;;;;;;;;;5031691;28;20463;-50
2023/06/09 12:51:31;;;;;;;15.00;14.10;;;;;;;;;;5034136;28;20029;-49
2023/06/09 12:53:58;;;;;;;15.80;14.80;;;;;;;;;;5037965;28;20459;-51
2023/06/09 12:56:25;;;;;;;15.00;14.13;;;;;;;;;;5032881;28;20075;-51
2023/06/09 12:58:51;;;;;;;16.38;15.43;;;;;;;;;;5031866;28;20048;-52
2023/06/09 13:01:16;;;;;;;16.17;15.27;;;;;;;;;;5034430;28;20049;-51
2023/06/09 13:03:42;;;;;;;15.45;14.55;;;;;;;;;;5035548;28;20025;-61
2023/06/09 13:06:07;;;;;;;15.77;14.88;;;;;;;;;;5031347;28;20076;-61
2023/06/09 13:08:33;;;;;;;15.80;14.88;;;;;;;;;;5033308;28;20120;-61
2023/06/09 13:10:59;;;;;;;20.55;19.45;;;;;;;;;;5030665;28;20037;-52
2023/06/09 13:13:24;;;;;;;22.42;21.23;;;;;;;;;;5034660;28;20036;-52
2023/06/09 13:15:49;;;;;;;32.15;30.45;;;;;;;;;;5032384;28;20037;-52
2023/06/09 13:18:16;;;;;;;35.17;33.35;;;;;;;;;;5033059;28;20040;-51
2023/06/09 13:20:41;;;;;;;29.30;27.77;;;;;;;;;;5035230;28;20427;-62
2023/06/09 13:23:07;;;;;;;33.97;32.22;;;;;;;;;;5033709;28;20040;-61
2023/06/09 13:25:34;;;;;;;32.83;31.13;;;;;;;;;;5033952;28;20441;-62
2023/06/09 13:28:00;;;;;;;34.92;33.13;;;;;;;;;;5033679;28;20087;-61
2023/06/09 13:30:26;;;;;;;37.35;35.35;;;;;;;;;;5029669;28;20033;-62
2023/06/09 13:32:52;;;;;;;31.38;29.75;;;;;;;;;;5034594;28;20041;-61
2023/06/09 13:35:17;;;;;;;30.20;28.60;;;;;;;;;;5032310;28;20041;-52
2023/06/09 13:37:43;;;;;;;27.17;25.73;;;;;;;;;;5030081;28;20044;-62
2023/06/09 13:40:09;;;;;;;25.77;24.38;;;;;;;;;;5033231;28;20033;-62
2023/06/09 13:42:36;;;;;;;35.25;33.38;;;;;;;;;;5032868;28;20435;-61
2023/06/09 13:45:02;;;;;;;30.33;28.73;;;;;;;;;;5034776;28;20036;-61
2023/06/09 13:47:27;;;;;;;28.88;27.38;;;;;;;;;;5038828;28;20041;-61
2023/06/09 13:49:54;;;;;;;33.10;31.40;;;;;;;;;;5034126;28;20037;-52
2023/06/09 13:52:20;;;;;;;32.40;30.70;;;;;;;;;;5035424;28;20059;-51
2023/06/09 13:54:46;;;;;;;26.83;25.42;;;;;;;;;;5037328;28;20405;-50
2023/06/09 13:57:12;;;;;;;29.80;28.17;;;;;;;;;;5035704;28;20095;-61
2023/06/09 13:59:37;;;;;;;28.30;26.70;;;;;;;;;;5038252;28;20043;-50
2023/06/09 14:02:04;;;;;;;33.13;31.35;;;;;;;;;;5036435;28;20362;-49
2023/06/09 14:04:30;;;;;;;26.42;25.02;;;;;;;;;;5039512;28;20037;-51
2023/06/09 14:06:55;;;;;;;29.95;28.35;;;;;;;;;;5037140;28;20029;-47
2023/06/09 14:09:21;;;;;;;26.65;25.20;;;;;;;;;;5035295;28;20039;-50
2023/06/09 14:11:46;;;;;;;25.58;24.23;;;;;;;;;;5035875;28;20083;-49
2023/06/09 14:14:11;;;;;;;26.90;25.40;;;;;;;;;;5033399;28;20100;-52
2023/06/09 14:16:37;;;;;;;29.42;27.85;;;;;;;;;;5038337;28;20043;-60